createdAt,value
2019-02-04T00:01:22.499Z,2.00
2019-02-04T00:03:50.456Z,1.90
2019-02-04T00:06:17.946Z,1.90
2019-02-04T00:08:45.430Z,1.90
2019-02-04T00:11:12.928Z,1.90
2019-02-04T00:13:40.433Z,2.00
2019-02-04T00:16:07.873Z,1.90
2019-02-04T00:18:35.370Z,1.80
2019-02-04T00:21:03.101Z,1.90
2019-02-04T00:23:31.318Z,1.90
2019-02-04T00:25:58.808Z,1.80
2019-02-04T00:28:26.149Z,1.90
2019-02-04T00:30:53.641Z,1.90
2019-02-04T00:33:21.010Z,2.00
2019-02-04T00:35:48.548Z,1.80
2019-02-04T00:38:15.790Z,1.60
2019-02-04T00:40:43.230Z,1.60
2019-02-04T00:43:10.519Z,1.50
2019-02-04T00:45:37.772Z,1.60
2019-02-04T00:48:05.151Z,1.70
2019-02-04T00:50:32.661Z,1.70
2019-02-04T00:53:00.173Z,1.70
2019-02-04T00:55:27.453Z,1.70
2019-02-04T00:57:54.881Z,1.80
2019-02-04T01:00:24.426Z,1.80
2019-02-04T01:02:51.813Z,1.80
2019-02-04T01:05:19.257Z,1.80
2019-02-04T01:07:47.211Z,1.70
2019-02-04T01:10:17.426Z,1.70
2019-02-04T01:12:44.726Z,1.70
2019-02-04T01:15:12.211Z,1.80
2019-02-04T01:17:39.485Z,1.80
2019-02-04T01:20:08.086Z,1.90
2019-02-04T01:22:35.542Z,1.90
2019-02-04T01:25:04.205Z,1.80
2019-02-04T01:27:31.465Z,1.90
2019-02-04T01:29:59.054Z,1.90
2019-02-04T01:32:26.529Z,1.70
2019-02-04T01:34:54.025Z,1.70
2019-02-04T01:37:21.496Z,1.70
2019-02-04T01:39:48.885Z,1.60
2019-02-04T01:42:16.803Z,1.50
2019-02-04T01:44:44.292Z,1.60
2019-02-04T01:47:14.677Z,1.70
2019-02-04T01:49:41.210Z,1.70
2019-02-04T01:52:08.602Z,1.70
2019-02-04T01:54:36.166Z,1.80
2019-02-04T01:57:03.545Z,1.70
2019-02-04T01:59:31.160Z,1.80
2019-02-04T02:01:58.581Z,1.90
2019-02-04T02:04:26.023Z,1.90
2019-02-04T02:06:53.537Z,1.90
2019-02-04T02:09:23.157Z,1.90
2019-02-04T02:11:50.647Z,2.00
2019-02-04T02:14:18.037Z,1.90
2019-02-04T02:16:45.337Z,1.70
2019-02-04T02:19:12.741Z,1.80
2019-02-04T02:21:40.193Z,1.80
2019-02-04T02:24:07.711Z,1.80
2019-02-04T02:26:36.062Z,1.90
2019-02-04T02:29:03.677Z,1.90
2019-02-04T02:31:31.218Z,1.90
2019-02-04T02:33:58.572Z,1.70
2019-02-04T02:36:26.070Z,1.80
2019-02-04T02:38:53.673Z,1.80
2019-02-04T02:41:21.201Z,1.80
2019-02-04T02:43:48.874Z,1.90
2019-02-04T02:46:16.386Z,1.80
2019-02-04T02:48:44.206Z,1.70
2019-02-04T02:51:11.769Z,1.60
2019-02-04T02:53:39.021Z,1.60
2019-02-04T02:56:06.369Z,1.50
2019-02-04T02:58:33.810Z,1.70
2019-02-04T03:01:01.346Z,1.70
2019-02-04T03:03:28.853Z,1.60
2019-02-04T03:05:56.615Z,1.80
2019-02-04T03:08:24.129Z,1.70
2019-02-04T03:10:51.595Z,1.70
2019-02-04T03:13:18.937Z,1.70
2019-02-04T03:15:46.238Z,1.70
2019-02-04T03:18:13.598Z,1.70
2019-02-04T03:20:41.169Z,1.60
2019-02-04T03:23:08.931Z,1.50
2019-02-04T03:25:36.404Z,1.50
2019-02-04T03:28:05.052Z,1.50
2019-02-04T03:30:33.273Z,1.60
2019-02-04T03:33:00.819Z,1.50
2019-02-04T03:35:28.179Z,1.60
2019-02-04T03:37:55.911Z,1.60
2019-02-04T03:40:25.377Z,1.40
2019-02-04T03:42:52.847Z,1.60
2019-02-04T03:45:20.692Z,1.60
2019-02-04T03:47:48.289Z,1.60
2019-02-04T03:50:15.886Z,1.70
2019-02-04T03:52:43.425Z,1.60
2019-02-04T03:55:11.801Z,1.60
2019-02-04T03:57:39.302Z,1.50
2019-02-04T04:00:13.946Z,1.60
2019-02-04T04:02:41.262Z,1.60
2019-02-04T04:05:08.685Z,1.70
2019-02-04T04:07:35.928Z,1.70
2019-02-04T04:10:04.035Z,1.60
2019-02-04T04:12:31.373Z,1.70
2019-02-04T04:14:58.700Z,1.60
2019-02-04T04:17:26.310Z,1.80
2019-02-04T04:19:53.682Z,1.80
2019-02-04T04:22:21.242Z,1.90
2019-02-04T04:24:48.682Z,1.70
2019-02-04T04:27:16.119Z,1.80
2019-02-04T04:29:44.355Z,1.80
2019-02-04T04:32:11.741Z,1.90
2019-02-04T04:34:39.174Z,1.80
2019-02-04T04:37:06.550Z,1.80
2019-02-04T04:39:34.042Z,1.80
2019-02-04T04:42:02.033Z,1.90
2019-02-04T04:44:29.409Z,2.00
2019-02-04T04:46:56.755Z,1.90
2019-02-04T04:49:25.476Z,1.70
2019-02-04T04:51:52.974Z,1.70
2019-02-04T04:54:20.234Z,1.80
2019-02-04T04:56:47.601Z,1.90
2019-02-04T04:59:15.461Z,2.00
2019-02-04T05:01:42.857Z,1.90
2019-02-04T05:04:10.117Z,2.00
2019-02-04T05:06:37.478Z,2.00
2019-02-04T05:09:06.077Z,2.00
2019-02-04T05:11:33.400Z,2.00
2019-02-04T05:14:00.782Z,2.00
2019-02-04T05:16:28.707Z,2.00
2019-02-04T05:18:56.237Z,2.00
2019-02-04T05:21:24.327Z,2.00
2019-02-04T05:23:51.875Z,1.80
2019-02-04T05:26:19.334Z,1.80
2019-02-04T05:28:46.559Z,1.80
2019-02-04T05:31:14.767Z,1.70
2019-02-04T05:33:42.138Z,1.70
2019-02-04T05:36:09.442Z,1.70
2019-02-04T05:38:36.986Z,1.80
2019-02-04T05:41:04.303Z,1.70
2019-02-04T05:43:31.706Z,1.70
2019-02-04T05:45:59.343Z,1.80
2019-02-04T05:48:26.742Z,1.70
2019-02-04T05:50:54.128Z,1.70
2019-02-04T05:53:21.402Z,1.70
2019-02-04T05:55:48.881Z,1.70
2019-02-04T05:58:16.781Z,1.60
2019-02-04T06:00:48.278Z,1.70
2019-02-04T06:03:15.581Z,1.70
2019-02-04T06:05:43.329Z,1.50
2019-02-04T06:08:10.814Z,1.60
2019-02-04T06:10:38.167Z,1.60
2019-02-04T06:13:05.641Z,1.50
2019-02-04T06:15:33.017Z,1.50
2019-02-04T06:18:00.418Z,1.40
2019-02-04T06:20:27.825Z,1.60
2019-02-04T06:22:55.255Z,1.70
2019-02-04T06:25:22.735Z,1.80
2019-02-04T06:27:50.234Z,2.00
2019-02-04T06:30:18.426Z,2.10
2019-02-04T06:32:46.628Z,2.10
2019-02-04T06:35:14.334Z,2.00
2019-02-04T06:37:41.728Z,2.00
2019-02-04T06:40:10.494Z,1.90
2019-02-04T06:42:37.830Z,1.80
2019-02-04T06:45:07.027Z,1.70
2019-02-04T06:47:34.382Z,1.70
2019-02-04T06:50:01.757Z,1.60
2019-02-04T06:52:29.182Z,1.50
2019-02-04T06:54:57.019Z,1.50
2019-02-04T06:57:24.431Z,1.30
2019-02-04T06:59:51.798Z,1.40
2019-02-04T07:02:19.090Z,1.50
2019-02-04T07:04:46.477Z,1.50
2019-02-04T07:07:15.146Z,1.60
2019-02-04T07:09:42.746Z,1.80
2019-02-04T07:12:10.536Z,1.80
2019-02-04T07:14:37.975Z,1.70
2019-02-04T07:17:05.462Z,1.60
2019-02-04T07:19:32.721Z,1.50
2019-02-04T07:22:00.149Z,1.60
2019-02-04T07:24:27.386Z,1.70
2019-02-04T07:26:54.851Z,1.70
2019-02-04T07:29:22.730Z,1.80
2019-02-04T07:31:50.286Z,1.80
2019-02-04T07:34:18.606Z,1.80
2019-02-04T07:36:45.895Z,1.70
2019-02-04T07:39:13.263Z,1.80
2019-02-04T07:41:40.636Z,1.80
2019-02-04T07:44:08.001Z,1.70
2019-02-04T07:46:35.403Z,2.00
2019-02-04T07:49:02.890Z,2.20
2019-02-04T07:51:30.390Z,2.20
2019-02-04T07:53:57.725Z,2.20
2019-02-04T07:56:25.285Z,2.30
2019-02-04T07:58:52.702Z,2.40
2019-02-04T08:01:20.225Z,2.40
2019-02-04T08:03:48.033Z,2.40
2019-02-04T08:06:15.366Z,2.50
2019-02-04T08:08:42.734Z,2.50
2019-02-04T08:11:10.185Z,2.40
2019-02-04T08:13:37.554Z,2.50
2019-02-04T08:16:05.821Z,2.70
2019-02-04T08:18:33.170Z,2.60
2019-02-04T08:21:01.178Z,2.20
2019-02-04T08:23:28.439Z,2.10
2019-02-04T08:25:55.781Z,2.20
2019-02-04T08:28:23.161Z,2.30
2019-02-04T08:30:50.561Z,2.20
2019-02-04T08:33:17.807Z,2.30
2019-02-04T08:35:46.117Z,2.30
2019-02-04T08:38:13.910Z,2.20
2019-02-04T08:40:41.434Z,2.10
2019-02-04T08:43:08.804Z,2.40
2019-02-04T08:45:36.308Z,2.60
2019-02-04T08:48:04.220Z,2.60
2019-02-04T08:50:31.672Z,2.80
2019-02-04T08:52:59.033Z,2.80
2019-02-04T08:55:26.457Z,2.90
2019-02-04T08:57:54.045Z,3.00
2019-02-04T09:00:22.010Z,3.10
2019-02-04T09:02:49.563Z,3.00
2019-02-04T09:05:17.378Z,2.90
2019-02-04T09:07:44.872Z,3.00
2019-02-04T09:10:16.247Z,3.10
2019-02-04T09:12:43.654Z,3.10
2019-02-04T09:15:12.358Z,3.20
2019-02-04T09:17:39.918Z,3.00
2019-02-04T09:20:10.153Z,3.00
2019-02-04T09:22:37.794Z,3.20
2019-02-04T09:25:06.650Z,3.10
2019-02-04T09:27:33.958Z,3.00
2019-02-04T09:30:01.340Z,3.30
2019-02-04T09:32:29.025Z,3.50
2019-02-04T09:34:56.414Z,3.50
2019-02-04T09:37:24.212Z,3.50
2019-02-04T09:39:51.557Z,3.50
2019-02-04T09:42:18.921Z,3.60
2019-02-04T09:44:46.184Z,3.60
2019-02-04T09:47:13.693Z,3.80
2019-02-04T09:49:41.158Z,3.90
2019-02-04T09:52:08.455Z,3.90
2019-02-04T09:54:35.751Z,4.00
2019-02-04T09:57:03.071Z,4.00
2019-02-04T09:59:30.506Z,4.10
2019-02-04T10:01:57.885Z,4.40
2019-02-04T10:04:25.109Z,4.60
2019-02-04T10:06:55.336Z,4.70
2019-02-04T10:09:22.055Z,4.90
2019-02-04T10:11:49.593Z,5.10
2019-02-04T10:14:17.135Z,4.60
2019-02-04T10:16:44.658Z,4.60
2019-02-04T10:19:12.047Z,4.60
2019-02-04T10:21:39.404Z,4.30
2019-02-04T10:24:06.748Z,4.20
2019-02-04T10:26:34.292Z,4.20
2019-02-04T10:29:01.634Z,4.40
2019-02-04T10:31:29.201Z,4.70
2019-02-04T10:33:56.537Z,5.00
2019-02-04T10:36:23.891Z,5.20
2019-02-04T10:38:51.579Z,5.30
2019-02-04T10:41:18.995Z,5.20
2019-02-04T10:43:46.404Z,5.20
2019-02-04T10:46:13.883Z,5.00
2019-02-04T10:48:41.303Z,4.90
2019-02-04T10:51:08.805Z,4.60
2019-02-04T10:53:36.159Z,4.50
2019-02-04T10:56:03.900Z,4.70
2019-02-04T10:58:31.327Z,5.00
2019-02-04T11:00:58.621Z,5.00
2019-02-04T11:03:26.150Z,4.80
2019-02-04T11:05:53.535Z,4.30
2019-02-04T11:08:20.965Z,3.90
2019-02-04T11:10:48.297Z,4.10
2019-02-04T11:13:16.690Z,4.30
2019-02-04T11:15:45.803Z,4.30
2019-02-04T11:18:15.306Z,4.40
2019-02-04T11:20:43.639Z,4.30
2019-02-04T11:23:11.084Z,4.00
2019-02-04T11:25:38.547Z,4.00
2019-02-04T11:28:07.749Z,3.60
2019-02-04T11:31:01.130Z,3.20
2019-02-04T11:33:28.745Z,2.90
2019-02-04T11:35:56.718Z,2.70
2019-02-04T11:38:24.075Z,2.70
2019-02-04T11:40:52.358Z,3.00
2019-02-04T11:43:20.431Z,3.10
2019-02-04T11:45:47.771Z,3.30
2019-02-04T11:48:15.472Z,3.40
2019-02-04T11:50:42.919Z,3.60
2019-02-04T11:53:10.180Z,3.60
2019-02-04T11:55:37.405Z,3.30
2019-02-04T11:58:07.955Z,3.10
2019-02-04T12:00:36.128Z,2.90
2019-02-04T12:03:04.333Z,2.90
2019-02-04T12:05:31.677Z,3.20
2019-02-04T12:07:59.119Z,3.30
2019-02-04T12:10:47.791Z,3.50
2019-02-04T12:13:15.297Z,3.50
2019-02-04T12:15:42.779Z,3.60
2019-02-04T12:18:10.190Z,3.80
2019-02-04T12:20:39.819Z,3.90
2019-02-04T12:23:06.783Z,3.90
2019-02-04T12:25:34.633Z,3.80
2019-02-04T12:28:02.030Z,3.90
2019-02-04T12:30:31.914Z,3.80
2019-02-04T12:32:59.517Z,3.80
2019-02-04T12:35:26.957Z,3.80
2019-02-04T12:37:54.738Z,3.70
2019-02-04T12:40:22.180Z,3.70
2019-02-04T12:42:50.157Z,3.70
2019-02-04T12:45:20.869Z,3.40
2019-02-04T12:47:48.306Z,3.20
2019-02-04T12:50:15.638Z,3.30
2019-02-04T12:52:43.511Z,3.40
2019-02-04T12:55:13.610Z,3.30
2019-02-04T12:57:40.858Z,3.30
2019-02-04T13:00:11.677Z,3.30
2019-02-04T13:02:39.114Z,3.10
2019-02-04T13:05:08.454Z,2.90
2019-02-04T13:07:35.733Z,2.70
2019-02-04T13:10:03.541Z,2.70
2019-02-04T13:12:30.945Z,2.80
2019-02-04T13:14:58.618Z,2.80
2019-02-04T13:17:26.923Z,3.00
2019-02-04T13:19:54.431Z,3.20
2019-02-04T13:22:21.726Z,3.20
2019-02-04T13:24:49.031Z,3.20
2019-02-04T13:27:16.709Z,3.20
2019-02-04T13:29:44.049Z,3.30
2019-02-04T13:32:11.912Z,3.40
2019-02-04T13:34:39.430Z,3.70
2019-02-04T13:37:07.127Z,4.00
2019-02-04T13:39:34.505Z,4.20
2019-02-04T13:42:01.757Z,4.30
2019-02-04T13:44:29.290Z,4.30
2019-02-04T13:46:56.535Z,4.20
2019-02-04T13:49:23.924Z,4.10
2019-02-04T13:51:57.424Z,4.00
2019-02-04T13:54:20.624Z,3.90
2019-02-04T13:56:47.889Z,3.70
2019-02-04T13:59:15.242Z,3.60
2019-02-04T14:01:42.855Z,3.40
2019-02-04T14:04:10.114Z,3.20
2019-02-04T14:06:37.696Z,3.20
2019-02-04T14:09:16.043Z,3.10
2019-02-04T14:11:43.262Z,3.00
2019-02-04T14:14:10.710Z,3.10
2019-02-04T14:16:38.193Z,3.20
2019-02-04T14:19:06.054Z,3.30
2019-02-04T14:21:33.490Z,3.30
2019-02-04T14:24:00.939Z,3.50
2019-02-04T14:26:28.754Z,3.60
2019-02-04T14:28:56.376Z,3.60
2019-02-04T14:31:23.805Z,3.60
2019-02-04T14:33:51.295Z,3.60
2019-02-04T14:36:18.657Z,3.60
2019-02-04T14:38:45.930Z,3.40
2019-02-04T14:41:13.477Z,3.40
2019-02-04T14:44:08.978Z,3.40
2019-02-04T14:47:07.479Z,3.30
2019-02-04T14:50:15.723Z,3.30
2019-02-04T14:53:05.370Z,3.40
2019-02-04T14:56:03.543Z,3.20
2019-02-04T14:58:46.177Z,2.90
2019-02-04T15:01:50.248Z,2.90
2019-02-04T15:04:30.369Z,2.90
2019-02-04T15:07:45.329Z,2.70
2019-02-04T15:10:49.751Z,2.70
2019-02-04T15:13:59.860Z,2.80
2019-02-04T15:16:34.956Z,2.80
2019-02-04T15:19:52.871Z,2.90
2019-02-04T15:23:14.376Z,3.00
2019-02-04T15:26:26.824Z,3.00
2019-02-04T15:29:01.106Z,3.00
2019-02-04T15:32:09.231Z,3.20
2019-02-04T15:35:10.055Z,3.20
2019-02-04T15:38:27.394Z,3.20
2019-02-04T15:41:13.848Z,3.30
2019-02-04T15:44:18.246Z,3.30
2019-02-04T15:47:06.654Z,3.30
2019-02-04T15:49:57.179Z,3.10
2019-02-04T15:52:24.510Z,3.10
2019-02-04T15:54:52.165Z,3.20
2019-02-04T15:57:19.749Z,3.10
2019-02-04T15:59:47.092Z,3.10
2019-02-04T16:02:14.550Z,3.10
2019-02-04T16:04:41.801Z,3.20
2019-02-04T16:07:10.563Z,3.20
2019-02-04T16:09:37.946Z,3.20
2019-02-04T16:12:05.821Z,3.20
2019-02-04T16:14:33.466Z,3.10
2019-02-04T16:17:00.841Z,3.20
2019-02-04T16:19:28.371Z,3.20
2019-02-04T16:21:55.669Z,3.20
2019-02-04T16:24:23.059Z,3.20
2019-02-04T16:26:50.747Z,3.30
2019-02-04T16:29:18.141Z,3.20
2019-02-04T16:31:45.969Z,3.10
2019-02-04T16:34:13.471Z,3.10
2019-02-04T16:36:41.055Z,3.00
2019-02-04T16:39:10.080Z,3.00
2019-02-04T16:41:37.634Z,2.90
2019-02-04T16:44:06.162Z,2.90
2019-02-04T16:46:33.429Z,2.80
2019-02-04T16:49:01.041Z,2.70
2019-02-04T16:51:28.416Z,2.70
2019-02-04T16:53:57.973Z,2.80
2019-02-04T16:56:25.244Z,2.60
2019-02-04T16:58:52.473Z,2.60
2019-02-04T17:01:19.889Z,2.50
2019-02-04T17:03:47.354Z,2.50
2019-02-04T17:06:15.192Z,2.40
2019-02-04T17:08:42.526Z,2.30
2019-02-04T17:11:09.942Z,2.40
2019-02-04T17:13:37.275Z,2.10
2019-02-04T17:16:04.781Z,2.00
2019-02-04T17:18:32.073Z,1.90
2019-02-04T17:20:59.358Z,2.10
2019-02-04T17:23:27.210Z,1.90
2019-02-04T17:25:54.465Z,2.00
2019-02-04T17:28:21.839Z,2.30
2019-02-04T17:30:49.318Z,2.10
2019-02-04T17:33:16.806Z,2.10
2019-02-04T17:35:44.066Z,2.10
2019-02-04T17:38:11.396Z,2.00
2019-02-04T17:40:39.163Z,1.80
2019-02-04T17:43:06.462Z,1.70
2019-02-04T17:45:33.782Z,1.60
2019-02-04T17:48:01.290Z,1.70
2019-02-04T17:50:28.638Z,1.80
2019-02-04T17:52:56.140Z,1.60
2019-02-04T17:55:23.842Z,1.20
2019-02-04T17:57:51.575Z,1.20
2019-02-04T18:00:33.095Z,1.00
2019-02-04T18:03:00.431Z,1.10
2019-02-04T18:05:27.931Z,1.20
2019-02-04T18:07:55.314Z,1.00
2019-02-04T18:10:22.813Z,0.90
2019-02-04T18:12:50.588Z,0.80
2019-02-04T18:15:18.257Z,0.90
2019-02-04T18:17:45.518Z,0.90
2019-02-04T18:20:13.374Z,1.00
2019-02-04T18:22:40.797Z,0.70
2019-02-04T18:25:09.812Z,0.50
2019-02-04T18:27:37.286Z,0.40
2019-02-04T18:30:06.434Z,0.40
2019-02-04T18:32:33.907Z,0.30
2019-02-04T18:35:01.417Z,0.20
2019-02-04T18:37:29.515Z,0.20
2019-02-04T18:39:56.966Z,0.20
2019-02-04T18:42:24.316Z,0.20
2019-02-04T18:44:52.143Z,0.10
2019-02-04T18:47:19.498Z,-0.10
2019-02-04T18:49:47.162Z,-0.20
2019-02-04T18:52:14.514Z,-0.30
2019-02-04T18:54:42.370Z,-0.30
2019-02-04T18:57:09.890Z,-0.40
2019-02-04T18:59:37.690Z,-0.40
2019-02-04T19:02:05.172Z,-0.40
2019-02-04T19:04:32.543Z,-0.50
2019-02-04T19:06:59.993Z,-0.60
2019-02-04T19:09:27.431Z,-0.70
2019-02-04T19:11:55.566Z,-0.80
2019-02-04T19:14:23.259Z,-0.80
2019-02-04T19:16:51.517Z,-0.80
2019-02-04T19:19:19.194Z,-0.80
2019-02-04T19:21:48.915Z,-0.80
2019-02-04T19:24:16.578Z,-0.80
2019-02-04T19:26:44.030Z,-0.90
2019-02-04T19:29:11.586Z,-1.10
2019-02-04T19:31:39.123Z,-1.10
2019-02-04T19:34:06.674Z,-1.10
2019-02-04T19:36:33.932Z,-1.10
2019-02-04T19:39:01.333Z,-1.00
2019-02-04T19:41:28.820Z,-1.10
2019-02-04T19:43:56.247Z,-1.20
2019-02-04T19:46:23.754Z,-1.40
2019-02-04T19:48:51.262Z,-1.60
2019-02-04T19:51:19.049Z,-1.70
2019-02-04T19:53:46.586Z,-1.80
2019-02-04T19:56:14.017Z,-1.90
2019-02-04T19:58:41.354Z,-1.90
2019-02-04T20:01:08.598Z,-2.10
2019-02-04T20:03:37.151Z,-2.10
2019-02-04T20:06:05.518Z,-2.00
2019-02-04T20:08:33.406Z,-1.90
2019-02-04T20:11:02.755Z,-1.90
2019-02-04T20:13:30.174Z,-1.90
2019-02-04T20:15:57.618Z,-1.90
2019-02-04T20:18:24.984Z,-1.90
2019-02-04T20:20:52.522Z,-1.90
2019-02-04T20:23:20.183Z,-2.00
2019-02-04T20:25:47.914Z,-2.10
2019-02-04T20:28:15.390Z,-2.20
2019-02-04T20:30:46.174Z,-2.20
2019-02-04T20:33:12.197Z,-2.30
2019-02-04T20:35:39.602Z,-2.40
2019-02-04T20:38:07.850Z,-2.60
2019-02-04T20:40:35.322Z,-2.70
2019-02-04T20:43:03.666Z,-2.60
2019-02-04T20:45:31.033Z,-2.60
2019-02-04T20:47:58.524Z,-2.50
2019-02-04T20:50:28.185Z,-2.40
2019-02-04T20:52:55.477Z,-2.50
2019-02-04T20:55:25.034Z,-2.60
2019-02-04T20:57:52.625Z,-2.70
2019-02-04T21:00:22.194Z,-2.80
2019-02-04T21:02:49.533Z,-2.90
2019-02-04T21:05:17.018Z,-2.90
2019-02-04T21:07:44.365Z,-3.00
2019-02-04T21:10:14.586Z,-3.10
2019-02-04T21:12:41.950Z,-3.20
2019-02-04T21:15:10.576Z,-3.30
2019-02-04T21:17:37.928Z,-3.20
2019-02-04T21:20:08.460Z,-3.30
2019-02-04T21:22:35.818Z,-3.30
2019-02-04T21:25:04.758Z,-3.20
2019-02-04T21:27:32.246Z,-3.10
2019-02-04T21:29:59.707Z,-3.10
2019-02-04T21:32:27.262Z,-3.00
2019-02-04T21:34:54.527Z,-3.20
2019-02-04T21:37:21.874Z,-3.20
2019-02-04T21:39:49.222Z,-3.40
2019-02-04T21:42:16.608Z,-3.40
2019-02-04T21:44:43.994Z,-3.50
2019-02-04T21:47:11.214Z,-3.60
2019-02-04T21:49:39.055Z,-3.60
2019-02-04T21:52:06.383Z,-3.50
2019-02-04T21:54:33.780Z,-3.50
2019-02-04T21:57:01.122Z,-3.50
2019-02-04T21:59:28.551Z,-3.40
2019-02-04T22:01:55.910Z,-3.40
2019-02-04T22:04:23.354Z,-3.40
2019-02-04T22:06:50.993Z,-3.30
2019-02-04T22:09:18.652Z,-3.50
2019-02-04T22:11:46.197Z,-3.50
2019-02-04T22:14:14.116Z,-3.70
2019-02-04T22:16:41.670Z,-3.80
2019-02-04T22:19:09.657Z,-3.80
2019-02-04T22:21:36.986Z,-3.90
2019-02-04T22:24:04.913Z,-3.90
2019-02-04T22:26:32.472Z,-4.00
2019-02-04T22:29:00.130Z,-3.90
2019-02-04T22:31:27.550Z,-3.90
2019-02-04T22:33:55.267Z,-4.00
2019-02-04T22:36:22.986Z,-4.00
2019-02-04T22:38:50.364Z,-4.10
2019-02-04T22:41:17.717Z,-3.90
2019-02-04T22:43:45.580Z,-4.00
2019-02-04T22:46:12.826Z,-4.10
2019-02-04T22:48:40.483Z,-4.10
2019-02-04T22:51:07.988Z,-4.10
2019-02-04T22:53:35.449Z,-4.10
2019-02-04T22:56:04.033Z,-4.10
2019-02-04T22:58:31.306Z,-4.10
2019-02-04T23:01:22.849Z,-4.10
2019-02-04T23:03:50.205Z,-4.20
2019-02-04T23:06:17.562Z,-4.20
2019-02-04T23:08:44.931Z,-4.30
2019-02-04T23:11:12.485Z,-4.20
2019-02-04T23:13:39.915Z,-4.20
2019-02-04T23:16:07.481Z,-4.20
2019-02-04T23:18:34.966Z,-4.30
2019-02-04T23:21:02.578Z,-4.40
2019-02-04T23:23:29.893Z,-4.50
2019-02-04T23:25:57.125Z,-4.60
2019-02-04T23:28:24.886Z,-4.60
2019-02-04T23:30:52.229Z,-4.70
2019-02-04T23:33:19.466Z,-4.60
2019-02-04T23:35:46.717Z,-4.70
2019-02-04T23:38:14.089Z,-4.60
2019-02-04T23:40:41.452Z,-4.70
2019-02-04T23:43:09.210Z,-4.70
2019-02-04T23:45:36.533Z,-4.80
2019-02-04T23:48:04.314Z,-4.90
2019-02-04T23:50:31.599Z,-5.00
2019-02-04T23:52:59.043Z,-5.00
2019-02-04T23:55:26.369Z,-5.00
2019-02-04T23:57:53.622Z,-4.90
